Time;durP1;ratioP1;P1;durP2;ratioP2;P2;SDS_P1;SDS_P2;PMS_P1;PMS_P2;Temp;Humidity;BMP_temperature;BMP_pressure;BME280_temperature;BME280_humidity;BME280_pressure;Samples;Min_cycle;Max_cycle;Signal;HPM_P1;HPM_P2
2023/07/25 00:00:29;;;;;;;14.43;8.13;;;20.90;99.90;;;;;;4176501;28;20033;-61
2023/07/25 00:02:30;;;;;;;12.48;8.50;;;20.90;99.90;;;;;;4176859;28;20170;-63
2023/07/25 00:04:31;;;;;;;12.35;8.02;;;20.90;99.90;;;;;;4176202;28;20033;-61
2023/07/25 00:06:33;;;;;;;18.80;8.65;;;20.90;99.90;;;;;;4177370;28;20082;-63
2023/07/25 00:08:34;;;;;;;15.50;8.75;;;20.90;99.90;;;;;;4176509;28;20017;-61
2023/07/25 00:10:35;;;;;;;17.42;8.93;;;20.90;99.90;;;;;;4158153;28;20037;-62
2023/07/25 00:12:37;;;;;;;12.77;8.25;;;20.90;99.90;;;;;;4176289;28;20033;-61
2023/07/25 00:14:38;;;;;;;15.80;8.18;;;20.90;99.90;;;;;;4176573;28;20032;-62
2023/07/25 00:16:39;;;;;;;15.77;8.82;;;20.90;99.90;;;;;;4177056;28;20037;-61
2023/07/25 00:18:40;;;;;;;15.75;9.00;;;21.00;99.90;;;;;;4176015;28;20014;-61
2023/07/25 00:20:41;;;;;;;14.60;8.70;;;21.00;99.90;;;;;;4177148;28;20102;-67
2023/07/25 00:22:42;;;;;;;11.60;7.35;;;21.00;99.90;;;;;;4156927;28;20053;-63
2023/07/25 00:24:43;;;;;;;10.95;8.00;;;20.90;99.90;;;;;;4161202;28;20049;-64
2023/07/25 00:26:44;;;;;;;12.73;8.50;;;20.90;99.90;;;;;;4159797;28;20449;-64
2023/07/25 00:28:45;;;;;;;14.98;8.80;;;20.90;99.90;;;;;;4158851;28;20083;-64
2023/07/25 00:30:47;;;;;;;16.83;8.55;;;20.80;99.90;;;;;;4159739;28;20045;-62
2023/07/25 00:32:48;;;;;;;14.82;9.18;;;20.70;99.90;;;;;;4160876;28;20091;-63
2023/07/25 00:34:51;;;;;;;18.10;8.75;;;20.60;99.90;;;;;;4159250;28;20046;-62
2023/07/25 00:36:53;;;;;;;15.05;9.90;;;20.60;99.90;;;;;;4160201;28;20029;-65
2023/07/25 00:38:54;;;;;;;18.00;9.73;;;20.40;99.90;;;;;;4159685;28;20083;-63
2023/07/25 00:40:55;;;;;;;14.88;9.35;;;20.40;99.90;;;;;;4160447;28;20470;-65
2023/07/25 00:42:56;;;;;;;14.48;8.70;;;20.40;99.90;;;;;;4160079;28;20091;-62
2023/07/25 00:44:57;;;;;;;15.32;8.38;;;20.40;99.90;;;;;;4160059;28;20478;-62
2023/07/25 00:46:58;;;;;;;14.45;8.70;;;20.40;99.90;;;;;;4160412;28;20300;-65
2023/07/25 00:49:00;;;;;;;16.35;9.02;;;20.40;99.90;;;;;;4159709;28;20442;-62
2023/07/25 00:51:03;;;;;;;18.10;9.63;;;20.50;99.90;;;;;;4160294;28;20049;-61
2023/07/25 00:53:06;;;;;;;19.45;10.15;;;20.60;99.90;;;;;;4158779;28;20037;-63
2023/07/25 00:55:07;;;;;;;17.25;9.38;;;20.60;99.90;;;;;;4161169;28;20080;-64
2023/07/25 00:57:08;;;;;;;16.65;9.55;;;20.50;99.90;;;;;;4157195;28;20041;-62
2023/07/25 00:59:10;;;;;;;13.80;8.77;;;20.60;99.90;;;;;;4159911;28;20022;-63
2023/07/25 01:01:11;;;;;;;18.15;9.30;;;20.70;99.90;;;;;;4159416;28;20075;-62
2023/07/25 01:03:13;;;;;;;14.07;9.23;;;20.70;99.90;;;;;;4160392;28;20819;-66
2023/07/25 01:05:14;;;;;;;19.58;9.07;;;20.60;99.90;;;;;;4159467;28;20079;-62
2023/07/25 01:07:16;;;;;;;17.70;9.60;;;20.60;99.90;;;;;;4160683;28;20507;-63
2023/07/25 01:09:37;;;;;;;19.10;9.38;;;20.50;99.90;;;;;;4159372;28;20045;-61
2023/07/25 01:11:38;;;;;;;14.50;8.35;;;20.40;99.90;;;;;;4160543;28;20034;-62
2023/07/25 01:13:40;;;;;;;17.52;10.32;;;20.30;99.90;;;;;;4157377;28;20521;-63
2023/07/25 01:15:41;;;;;;;17.15;9.90;;;20.30;99.90;;;;;;4160248;28;20041;-63
2023/07/25 01:17:42;;;;;;;21.15;9.98;;;20.30;99.90;;;;;;4159513;28;20087;-63
2023/07/25 01:19:46;;;;;;;13.85;8.73;;;20.20;99.90;;;;;;4160082;28;20060;-64
2023/07/25 01:21:47;;;;;;;13.90;8.75;;;20.20;99.90;;;;;;4165168;28;20400;-65
2023/07/25 01:23:49;;;;;;;16.73;8.88;;;20.20;99.90;;;;;;4176275;28;20173;-62
2023/07/25 01:25:51;;;;;;;14.13;8.65;;;20.20;99.90;;;;;;4176836;28;20122;-61
2023/07/25 01:27:53;;;;;;;13.93;8.38;;;20.30;99.90;;;;;;4173551;28;20110;-63
2023/07/25 01:29:54;;;;;;;18.17;9.63;;;20.40;99.90;;;;;;4177039;28;20079;-62
2023/07/25 01:31:55;;;;;;;17.70;9.77;;;20.50;99.90;;;;;;4175645;28;20130;-63
2023/07/25 01:33:56;;;;;;;17.83;10.05;;;20.60;99.90;;;;;;4176882;28;20518;-63
2023/07/25 01:35:58;;;;;;;19.58;9.63;;;20.60;99.90;;;;;;4177473;28;20078;-63
2023/07/25 01:38:00;;;;;;;15.85;9.65;;;20.60;99.90;;;;;;4180055;28;20083;-62
2023/07/25 01:40:01;;;;;;;19.58;8.88;;;20.60;99.90;;;;;;4178360;28;20033;-62
2023/07/25 01:42:03;;;;;;;23.98;9.85;;;20.50;99.90;;;;;;4178768;28;20078;-63
2023/07/25 01:44:05;;;;;;;17.95;9.68;;;20.50;99.90;;;;;;4177186;28;20095;-63
2023/07/25 01:46:06;;;;;;;20.42;11.07;;;20.50;99.90;;;;;;4179878;28;20029;-62
2023/07/25 01:48:07;;;;;;;16.33;9.27;;;20.40;99.90;;;;;;4178793;28;20047;-61
2023/07/25 01:50:09;;;;;;;15.02;9.82;;;20.40;99.90;;;;;;4179319;28;20025;-61
2023/07/25 01:52:10;;;;;;;19.75;10.50;;;20.20;99.90;;;;;;4178984;28;20079;-63
2023/07/25 01:54:11;;;;;;;20.10;10.13;;;20.10;99.90;;;;;;4178353;28;20071;-62
2023/07/25 01:56:12;;;;;;;18.83;10.23;;;20.10;99.90;;;;;;4179681;28;20083;-62
2023/07/25 01:58:13;;;;;;;18.55;10.45;;;20.00;99.90;;;;;;4178676;28;20680;-63
2023/07/25 02:00:15;;;;;;;16.17;10.23;;;19.90;99.90;;;;;;4178291;28;20044;-64
2023/07/25 02:02:16;;;;;;;18.00;10.50;;;19.90;99.90;;;;;;4178373;28;20029;-61
2023/07/25 02:04:18;;;;;;;16.83;10.02;;;19.80;99.90;;;;;;4178801;28;20041;-62
2023/07/25 02:06:19;;;;;;;23.00;10.40;;;19.60;99.90;;;;;;4177788;28;20029;-63
2023/07/25 02:08:20;;;;;;;17.52;11.23;;;19.60;99.90;;;;;;4178475;28;20517;-62
2023/07/25 02:10:21;;;;;;;21.45;11.05;;;19.60;99.90;;;;;;4178180;28;20099;-62
2023/07/25 02:12:23;;;;;;;22.42;11.73;;;19.70;99.90;;;;;;4179291;28;20037;-63
2023/07/25 02:14:24;;;;;;;21.70;11.85;;;19.80;99.90;;;;;;4177159;28;20037;-62
2023/07/25 02:16:25;;;;;;;22.65;11.88;;;19.80;99.90;;;;;;4178195;28;20450;-62
2023/07/25 02:18:26;;;;;;;18.20;10.77;;;19.80;99.90;;;;;;4177497;28;20138;-63
2023/07/25 02:20:31;;;;;;;19.10;11.07;;;19.90;99.90;;;;;;4178488;28;20107;-65
2023/07/25 02:22:32;;;;;;;20.05;10.07;;;19.90;99.90;;;;;;4178224;28;20110;-62
2023/07/25 02:24:33;;;;;;;15.80;10.23;;;20.00;99.90;;;;;;4178722;28;20053;-62
2023/07/25 02:26:35;;;;;;;15.27;10.18;;;20.00;99.90;;;;;;4178066;28;20029;-61
2023/07/25 02:28:36;;;;;;;17.50;10.32;;;20.10;99.90;;;;;;4178184;28;20415;-62
2023/07/25 02:30:37;;;;;;;18.55;12.02;;;20.10;99.90;;;;;;4178791;28;21376;-62
2023/07/25 02:32:38;;;;;;;19.88;11.05;;;20.10;99.90;;;;;;4159664;28;20037;-61
2023/07/25 02:34:39;;;;;;;15.15;10.30;;;20.00;99.90;;;;;;4178919;28;20029;-63
2023/07/25 02:36:40;;;;;;;16.58;10.07;;;20.00;99.90;;;;;;4177507;28;20046;-62
2023/07/25 02:38:41;;;;;;;15.68;10.27;;;20.00;99.90;;;;;;4178984;28;20459;-62
2023/07/25 02:40:44;;;;;;;20.40;10.98;;;20.00;99.90;;;;;;4177814;28;20112;-62
2023/07/25 02:42:45;;;;;;;22.30;10.85;;;19.80;99.90;;;;;;4178067;28;20432;-63
2023/07/25 02:44:46;;;;;;;16.08;9.90;;;19.60;99.90;;;;;;4177057;28;20041;-63
2023/07/25 02:46:47;;;;;;;16.50;10.43;;;19.50;99.90;;;;;;4178426;28;20037;-63
2023/07/25 02:48:49;;;;;;;18.27;11.82;;;19.50;99.90;;;;;;4177592;28;20099;-61
2023/07/25 02:50:50;;;;;;;18.67;10.00;;;19.40;99.90;;;;;;4178065;28;20074;-61
2023/07/25 02:52:51;;;;;;;19.27;11.88;;;19.30;99.90;;;;;;4159837;28;20136;-62
2023/07/25 02:54:52;;;;;;;20.30;11.43;;;19.10;99.90;;;;;;4178314;28;20074;-62
2023/07/25 02:56:53;;;;;;;21.00;11.43;;;19.10;99.90;;;;;;4178013;28;20416;-63
2023/07/25 02:58:54;;;;;;;18.10;11.27;;;19.10;99.90;;;;;;4177682;28;20037;-63
2023/07/25 03:00:55;;;;;;;20.90;12.63;;;19.10;99.90;;;;;;4177982;28;20090;-62
2023/07/25 03:02:56;;;;;;;16.40;12.00;;;19.10;99.90;;;;;;4176830;28;20087;-62
2023/07/25 03:04:57;;;;;;;21.98;13.27;;;19.00;99.90;;;;;;4178192;28;20237;-64
2023/07/25 03:06:58;;;;;;;20.17;13.52;;;19.00;99.90;;;;;;4159265;28;20045;-62
2023/07/25 03:09:00;;;;;;;17.85;12.57;;;19.00;99.90;;;;;;4178137;28;20029;-62
2023/07/25 03:11:01;;;;;;;19.85;12.52;;;19.00;99.90;;;;;;4177248;28;20040;-62
2023/07/25 03:13:02;;;;;;;18.13;12.25;;;19.10;99.90;;;;;;4178447;28;20445;-61
2023/07/25 03:15:03;;;;;;;19.90;13.23;;;19.20;99.90;;;;;;4177172;28;20090;-61
2023/07/25 03:17:05;;;;;;;20.23;12.18;;;19.20;99.90;;;;;;4178566;28;20090;-63
2023/07/25 03:19:06;;;;;;;22.75;13.23;;;19.20;99.90;;;;;;4176460;28;20025;-62
2023/07/25 03:21:07;;;;;;;18.38;12.23;;;19.30;99.90;;;;;;4177301;28;20024;-62
2023/07/25 03:23:08;;;;;;;19.73;12.13;;;19.30;99.90;;;;;;4176967;28;20094;-62
2023/07/25 03:25:09;;;;;;;23.92;11.32;;;19.30;99.90;;;;;;4177283;28;20090;-62
2023/07/25 03:27:10;;;;;;;23.55;12.68;;;19.40;99.90;;;;;;4177533;28;20021;-62
2023/07/25 03:29:12;;;;;;;18.88;11.95;;;19.50;99.90;;;;;;4177380;28;20469;-64
2023/07/25 03:31:13;;;;;;;19.63;12.52;;;19.50;99.90;;;;;;4177611;28;20444;-63
2023/07/25 03:33:14;;;;;;;16.48;11.00;;;19.60;99.90;;;;;;4176586;28;20032;-64
2023/07/25 03:35:15;;;;;;;25.33;12.13;;;19.70;99.90;;;;;;4177449;28;20793;-63
2023/07/25 03:37:16;;;;;;;17.58;12.75;;;19.70;99.90;;;;;;4176795;28;20394;-63
2023/07/25 03:39:18;;;;;;;18.65;11.10;;;19.90;99.90;;;;;;4178053;28;20029;-63
2023/07/25 03:41:19;;;;;;;26.48;11.43;;;20.00;99.90;;;;;;4176221;28;20037;-64
2023/07/25 03:43:20;;;;;;;21.52;13.32;;;20.10;99.90;;;;;;4177415;28;20043;-63
2023/07/25 03:45:21;;;;;;;21.58;12.30;;;20.10;99.90;;;;;;4176569;28;20515;-63
2023/07/25 03:47:23;;;;;;;23.02;13.35;;;20.10;99.90;;;;;;4177644;28;20102;-64
2023/07/25 03:49:24;;;;;;;19.83;12.27;;;20.20;99.90;;;;;;4176370;28;20165;-63
2023/07/25 03:51:25;;;;;;;23.02;13.48;;;20.10;99.90;;;;;;4177491;28;20366;-62
2023/07/25 03:53:26;;;;;;;24.27;13.02;;;20.20;99.90;;;;;;4176401;28;20352;-61
2023/07/25 03:55:27;;;;;;;20.40;12.70;;;20.20;99.90;;;;;;4177536;28;20094;-63
2023/07/25 03:57:28;;;;;;;17.63;12.70;;;20.10;99.90;;;;;;4176473;28;20166;-62
2023/07/25 03:59:29;;;;;;;20.67;14.00;;;20.10;99.90;;;;;;4176279;28;20025;-63
2023/07/25 04:01:31;;;;;;;25.25;15.55;;;20.10;99.90;;;;;;4172747;28;20037;-62
2023/07/25 04:03:32;;;;;;;19.35;12.65;;;20.00;99.90;;;;;;4166235;28;20025;-61
2023/07/25 04:05:33;;;;;;;19.23;10.68;;;20.00;99.90;;;;;;4177203;28;20053;-61
2023/07/25 04:07:34;;;;;;;25.17;13.18;;;19.90;99.90;;;;;;4176304;28;20037;-62
2023/07/25 04:09:35;;;;;;;16.88;10.43;;;19.90;99.90;;;;;;4177464;28;20052;-66
2023/07/25 04:11:36;;;;;;;44.63;20.38;;;20.00;99.90;;;;;;4175606;28;20497;-62
2023/07/25 04:13:38;;;;;;;19.85;11.93;;;20.20;99.90;;;;;;4177310;28;20086;-61
2023/07/25 04:15:39;;;;;;;17.92;11.18;;;20.30;99.90;;;;;;4175287;28;20110;-63
2023/07/25 04:17:40;;;;;;;17.40;11.88;;;20.40;99.90;;;;;;4160924;28;20033;-62
2023/07/25 04:19:41;;;;;;;15.48;10.32;;;20.40;99.90;;;;;;4173228;28;20045;-62
2023/07/25 04:21:42;;;;;;;18.98;10.40;;;20.10;99.90;;;;;;4177271;28;20045;-62
2023/07/25 04:23:44;;;;;;;16.48;9.95;;;19.90;99.90;;;;;;4175951;28;20057;-61
2023/07/25 04:25:45;;;;;;;16.38;11.10;;;19.80;99.90;;;;;;4177332;28;20041;-62
2023/07/25 04:27:46;;;;;;;17.65;10.75;;;19.70;99.90;;;;;;4176726;28;20057;-61
2023/07/25 04:29:47;;;;;;;18.77;11.18;;;19.70;99.90;;;;;;4176162;28;20480;-63
2023/07/25 04:31:48;;;;;;;16.23;10.45;;;19.80;99.90;;;;;;4177014;28;20094;-62
2023/07/25 04:33:49;;;;;;;17.85;11.20;;;19.90;99.90;;;;;;4176322;28;20083;-64
2023/07/25 04:35:50;;;;;;;20.02;11.07;;;20.10;99.90;;;;;;4170685;28;20091;-61
2023/07/25 04:37:52;;;;;;;15.77;10.73;;;20.10;99.90;;;;;;4159645;28;20615;-62
2023/07/25 04:39:53;;;;;;;16.35;10.30;;;20.20;99.90;;;;;;4160033;28;20160;-62
2023/07/25 04:41:54;;;;;;;16.40;10.65;;;20.10;99.90;;;;;;4191620;28;20538;-63
2023/07/25 04:43:55;;;;;;;15.68;10.65;;;19.90;99.90;;;;;;4193700;28;20419;-64
2023/07/25 04:45:56;;;;;;;16.08;10.45;;;19.70;99.90;;;;;;4174545;28;20083;-63
2023/07/25 04:47:57;;;;;;;15.43;10.40;;;19.60;99.90;;;;;;4193479;28;20066;-61
2023/07/25 04:49:59;;;;;;;17.75;10.57;;;19.40;99.90;;;;;;4192413;28;20438;-61
2023/07/25 04:52:00;;;;;;;20.83;10.93;;;19.30;99.90;;;;;;4189179;28;20029;-62
2023/07/25 04:54:01;;;;;;;17.35;11.23;;;19.30;99.90;;;;;;4171801;28;20098;-62
2023/07/25 04:56:02;;;;;;;20.25;11.15;;;19.20;99.90;;;;;;4176758;28;20465;-62
2023/07/25 04:58:04;;;;;;;17.63;10.93;;;19.20;99.90;;;;;;4175343;28;20095;-62
2023/07/25 05:00:06;;;;;;;17.30;10.52;;;19.30;99.90;;;;;;4176038;28;20086;-62
2023/07/25 05:02:07;;;;;;;16.15;11.00;;;19.30;99.90;;;;;;4176377;28;20025;-62
2023/07/25 05:04:08;;;;;;;21.13;10.77;;;19.30;99.90;;;;;;4175438;28;20036;-61
2023/07/25 05:06:11;;;;;;;18.77;10.93;;;19.40;99.90;;;;;;4176533;28;20041;-61
2023/07/25 05:08:12;;;;;;;21.20;13.18;;;19.50;99.90;;;;;;4174265;28;20037;-61
2023/07/25 05:10:13;;;;;;;22.25;13.05;;;19.50;99.90;;;;;;4179471;28;20056;-62
2023/07/25 05:12:15;;;;;;;20.52;11.68;;;19.60;99.90;;;;;;4177921;28;20098;-62
2023/07/25 05:14:16;;;;;;;19.20;11.75;;;19.70;99.90;;;;;;4176524;28;20041;-62
2023/07/25 05:16:18;;;;;;;18.63;11.63;;;19.70;99.90;;;;;;4159523;28;20074;-62
2023/07/25 05:18:19;;;;;;;21.30;11.20;;;19.80;99.90;;;;;;4169669;28;20044;-62
2023/07/25 05:20:21;;;;;;;18.05;10.85;;;19.80;99.90;;;;;;4177373;28;20099;-62
2023/07/25 05:22:22;;;;;;;21.77;11.35;;;19.90;99.90;;;;;;4173725;28;20040;-62
2023/07/25 05:24:23;;;;;;;20.00;11.55;;;20.00;99.90;;;;;;4175123;28;20033;-62
2023/07/25 05:26:24;;;;;;;20.98;12.38;;;20.10;99.90;;;;;;4182968;28;20198;-62
2023/07/25 05:28:25;;;;;;;17.95;10.95;;;20.30;99.90;;;;;;4173256;28;20049;-62
2023/07/25 05:30:26;;;;;;;15.73;9.48;;;20.40;99.90;;;;;;4180063;28;20106;-62
2023/07/25 05:32:28;;;;;;;21.27;13.38;;;20.50;99.90;;;;;;4179979;28;20029;-62
2023/07/25 05:34:29;;;;;;;19.88;12.57;;;20.70;99.90;;;;;;4180822;28;20591;-62
2023/07/25 05:36:30;;;;;;;17.45;11.80;;;20.80;99.90;;;;;;4192988;28;20029;-61
2023/07/25 05:38:31;;;;;;;20.27;12.52;;;21.00;99.90;;;;;;4188838;28;20122;-62
2023/07/25 05:40:32;;;;;;;21.83;11.55;;;21.30;99.90;;;;;;4178843;28;20037;-62
2023/07/25 05:42:33;;;;;;;19.85;11.75;;;21.50;99.90;;;;;;4177467;28;20025;-62
2023/07/25 05:44:35;;;;;;;16.33;11.07;;;21.60;99.90;;;;;;4178700;28;20029;-61
2023/07/25 05:46:36;;;;;;;20.25;12.48;;;21.60;99.90;;;;;;4177806;28;20477;-62
2023/07/25 05:48:37;;;;;;;14.68;10.07;;;21.60;99.90;;;;;;4178514;28;20539;-63
2023/07/25 05:50:38;;;;;;;23.52;11.73;;;21.60;99.90;;;;;;4177052;28;20115;-61
2023/07/25 05:52:39;;;;;;;18.20;9.48;;;21.60;99.90;;;;;;4178459;28;20040;-61
2023/07/25 05:54:40;;;;;;;17.52;10.10;;;21.60;99.90;;;;;;4178100;28;20447;-61
2023/07/25 05:56:41;;;;;;;16.38;10.65;;;21.80;99.90;;;;;;4179287;28;20110;-61
2023/07/25 05:58:43;;;;;;;16.80;10.75;;;21.90;99.90;;;;;;4177441;28;20045;-62
2023/07/25 06:00:45;;;;;;;18.65;10.68;;;22.00;99.90;;;;;;4177103;28;20041;-62
2023/07/25 06:02:46;;;;;;;20.27;10.60;;;22.10;99.90;;;;;;4176893;28;20041;-62
2023/07/25 06:04:47;;;;;;;18.05;10.05;;;22.20;99.90;;;;;;4177811;28;20036;-61
2023/07/25 06:06:48;;;;;;;19.70;11.57;;;22.60;99.90;;;;;;4176553;28;20041;-62
2023/07/25 06:08:53;;;;;;;19.17;11.27;;;22.80;99.90;;;;;;4169808;28;20151;-62
2023/07/25 06:10:54;;;;;;;14.23;10.60;;;23.30;99.90;;;;;;4177806;28;20091;-62
2023/07/25 06:12:55;;;;;;;17.10;11.38;;;23.80;99.90;;;;;;4177349;28;20359;-62
2023/07/25 06:14:56;;;;;;;22.35;11.95;;;24.50;99.90;;;;;;4178733;28;20033;-61
2023/07/25 06:16:58;;;;;;;21.38;9.75;;;25.20;99.90;;;;;;4177503;28;20041;-61
2023/07/25 06:18:59;;;;;;;17.27;8.93;;;25.40;99.90;;;;;;4178404;28;20091;-61
2023/07/25 06:21:00;;;;;;;22.63;10.65;;;25.40;99.90;;;;;;4176651;28;20037;-63
2023/07/25 06:23:01;;;;;;;23.52;10.07;;;25.70;99.90;;;;;;4178604;28;20152;-61
2023/07/25 06:25:03;;;;;;;21.50;11.05;;;26.00;99.90;;;;;;4177931;28;20485;-62
2023/07/25 06:27:04;;;;;;;13.52;8.68;;;26.30;99.90;;;;;;4177355;28;20049;-60
2023/07/25 06:29:06;;;;;;;16.30;7.90;;;26.70;99.90;;;;;;4176071;28;20102;-61
2023/07/25 06:31:07;;;;;;;12.00;7.78;;;27.20;99.90;;;;;;4177939;28;20025;-61
2023/07/25 06:33:08;;;;;;;13.18;6.93;;;27.80;99.90;;;;;;4177355;28;20852;-61
2023/07/25 06:35:09;;;;;;;10.23;6.65;;;28.20;99.90;;;;;;4175279;28;20480;-62
2023/07/25 06:37:10;;;;;;;19.58;6.75;;;28.70;99.90;;;;;;4174700;28;20537;-60
2023/07/25 06:39:11;;;;;;;9.65;6.45;;;29.10;99.90;;;;;;4159049;28;20076;-61
2023/07/25 06:41:12;;;;;;;10.02;6.57;;;29.30;99.90;;;;;;4178516;28;20091;-61
2023/07/25 06:43:14;;;;;;;10.30;6.15;;;29.40;99.90;;;;;;4175634;28;20151;-61
2023/07/25 06:45:15;;;;;;;11.57;6.25;;;29.90;99.90;;;;;;4176449;28;20040;-63
2023/07/25 06:47:16;;;;;;;13.52;7.20;;;29.60;99.90;;;;;;4176818;28;20101;-62
2023/07/25 06:49:17;;;;;;;16.10;7.55;;;29.60;99.90;;;;;;4159984;28;20041;-60
2023/07/25 06:51:21;;;;;;;13.02;6.95;;;29.50;99.90;;;;;;4176665;28;20021;-59
2023/07/25 06:53:22;;;;;;;12.98;8.18;;;29.30;99.90;;;;;;4177029;28;20151;-62
2023/07/25 06:55:24;;;;;;;13.50;7.47;;;28.80;99.90;;;;;;4189494;28;20086;-60
2023/07/25 06:57:25;;;;;;;18.50;6.40;;;28.80;99.90;;;;;;4195102;28;20145;-60
2023/07/25 07:00:03;;;;;;;11.43;5.90;;;29.10;99.90;;;;;;4135920;28;20025;-61
2023/07/25 07:02:05;;;;;;;7.45;5.18;;;29.10;99.90;;;;;;4101465;28;21103;-61
2023/07/25 07:04:09;;;;;;;10.48;5.28;;;28.90;99.90;;;;;;4099849;28;20303;-61
2023/07/25 07:06:10;;;;;;;8.48;5.15;;;29.20;99.90;;;;;;4073638;28;20073;-60
2023/07/25 07:08:11;;;;;;;8.35;4.93;;;29.80;99.90;;;;;;4053670;28;21105;-60
2023/07/25 07:10:12;;;;;;;9.70;6.07;;;30.50;99.90;;;;;;4159804;28;20037;-60
2023/07/25 07:12:15;;;;;;;11.25;6.25;;;30.80;99.90;;;;;;4160406;28;20547;-61
2023/07/25 07:14:16;;;;;;;8.10;5.38;;;31.00;99.90;;;;;;4161333;28;20021;-61
2023/07/25 07:16:18;;;;;;;8.82;6.63;;;31.30;99.90;;;;;;4161221;28;20096;-60
2023/07/25 07:18:19;;;;;;;11.40;6.75;;;31.10;99.90;;;;;;4160484;28;20087;-61
2023/07/25 07:20:21;;;;;;;12.45;6.95;;;31.50;99.90;;;;;;4161116;28;20079;-61
2023/07/25 07:22:23;;;;;;;11.50;6.13;;;31.90;99.90;;;;;;4160071;28;20091;-61
2023/07/25 07:24:24;;;;;;;9.15;6.05;;;31.80;99.90;;;;;;4160488;28;20046;-62
2023/07/25 07:26:26;;;;;;;10.77;6.28;;;31.90;99.90;;;;;;4169989;28;20045;-60
2023/07/25 07:28:27;;;;;;;9.65;6.43;;;31.90;99.90;;;;;;4178063;28;20048;-60
2023/07/25 07:30:28;;;;;;;14.32;5.90;;;31.70;99.90;;;;;;4165518;28;20095;-62
2023/07/25 07:32:29;;;;;;;8.10;5.80;;;31.40;99.80;;;;;;4161092;28;20071;-60
2023/07/25 07:34:30;;;;;;;13.45;6.85;;;31.00;99.80;;;;;;4160422;28;20515;-61
2023/07/25 07:36:31;;;;;;;9.23;6.38;;;30.80;99.70;;;;;;4161284;28;20478;-62
2023/07/25 07:38:33;;;;;;;9.40;6.03;;;30.60;99.80;;;;;;4160001;28;20091;-61
2023/07/25 07:40:35;;;;;;;12.35;6.63;;;30.10;99.90;;;;;;4160622;28;20026;-61
2023/07/25 07:42:36;;;;;;;12.02;6.57;;;30.10;99.90;;;;;;4159723;28;20041;-61
2023/07/25 07:44:37;;;;;;;9.27;7.07;;;29.90;99.90;;;;;;4160337;28;20098;-61
2023/07/25 07:46:38;;;;;;;9.30;6.30;;;29.70;99.90;;;;;;4160379;28;20061;-61
2023/07/25 07:48:43;;;;;;;10.05;6.22;;;29.60;99.90;;;;;;4165568;28;20363;-60
2023/07/25 07:50:44;;;;;;;9.57;6.10;;;29.60;99.90;;;;;;4160660;28;20034;-60
2023/07/25 07:52:46;;;;;;;11.32;6.38;;;29.40;99.90;;;;;;4160159;28;20417;-60
2023/07/25 07:54:47;;;;;;;10.40;6.75;;;29.30;99.90;;;;;;4161354;28;20025;-59
2023/07/25 07:56:48;;;;;;;11.20;7.30;;;29.40;99.90;;;;;;4159085;28;20033;-60
2023/07/25 07:58:49;;;;;;;8.48;6.38;;;29.30;99.90;;;;;;4160594;28;20099;-61
2023/07/25 08:00:50;;;;;;;12.13;6.63;;;29.30;99.90;;;;;;4164874;28;20032;-63
2023/07/25 08:02:51;;;;;;;11.32;6.38;;;29.40;99.90;;;;;;4160644;28;20482;-60
2023/07/25 08:04:52;;;;;;;9.65;7.10;;;29.40;99.90;;;;;;4171079;28;20030;-61
2023/07/25 08:06:54;;;;;;;10.23;6.65;;;29.50;99.90;;;;;;4164313;28;20036;-59
2023/07/25 08:08:55;;;;;;;12.02;7.03;;;29.40;99.90;;;;;;4157822;28;20182;-61
2023/07/25 08:10:56;;;;;;;9.60;7.03;;;29.50;99.90;;;;;;4170931;28;20095;-61
2023/07/25 08:12:57;;;;;;;10.40;6.90;;;29.40;99.90;;;;;;4159344;28;20441;-62
2023/07/25 08:14:58;;;;;;;13.32;6.72;;;29.10;99.90;;;;;;4160717;28;20082;-62
2023/07/25 08:17:00;;;;;;;11.80;7.10;;;28.80;99.90;;;;;;4159218;28;20494;-62
2023/07/25 08:19:01;;;;;;;9.48;6.97;;;28.60;99.90;;;;;;4159933;28;20025;-60
2023/07/25 08:21:02;;;;;;;9.45;6.80;;;28.40;99.90;;;;;;4160424;28;20029;-60
2023/07/25 08:23:04;;;;;;;10.10;6.60;;;28.40;99.90;;;;;;4166866;28;20037;-61
2023/07/25 08:25:05;;;;;;;9.70;6.95;;;28.50;99.90;;;;;;4159843;28;20034;-61
2023/07/25 08:27:08;;;;;;;9.75;6.90;;;28.50;99.90;;;;;;4159281;28;20041;-60
2023/07/25 08:29:09;;;;;;;11.45;6.40;;;28.40;99.90;;;;;;4161010;28;20029;-60
2023/07/25 08:31:10;;;;;;;10.88;6.90;;;28.50;99.90;;;;;;4159500;28;20650;-62
2023/07/25 08:33:19;;;;;;;10.35;6.75;;;28.50;99.90;;;;;;4160988;28;20037;-61
2023/07/25 08:35:20;;;;;;;10.07;7.00;;;28.60;99.90;;;;;;4159373;28;20017;-61
2023/07/25 08:37:23;;;;;;;13.35;6.80;;;28.60;99.90;;;;;;4160301;28;20060;-60
2023/07/25 08:39:24;;;;;;;13.55;7.65;;;28.50;99.90;;;;;;4158933;28;20037;-60
2023/07/25 08:41:28;;;;;;;10.07;6.72;;;28.60;99.90;;;;;;4160332;28;20041;-60
2023/07/25 08:43:31;;;;;;;12.35;6.85;;;28.50;99.90;;;;;;4159829;28;20095;-60
2023/07/25 08:45:33;;;;;;;9.25;6.43;;;28.50;99.90;;;;;;4145496;28;20128;-61
2023/07/25 08:47:39;;;;;;;7.90;6.35;;;28.50;99.90;;;;;;4162965;28;20936;-60
2023/07/25 08:49:44;;;;;;;11.35;7.07;;;28.40;99.90;;;;;;4163090;28;20532;-62
2023/07/25 08:51:46;;;;;;;9.07;6.60;;;28.20;99.90;;;;;;4162405;28;20045;-60
2023/07/25 08:54:02;;;;;;;9.20;7.35;;;27.80;99.90;;;;;;4161545;28;20041;-61
2023/07/25 08:56:04;;;;;;;12.93;6.28;;;27.50;99.90;;;;;;4163012;28;20033;-61
2023/07/25 08:58:05;;;;;;;10.25;7.30;;;27.30;99.90;;;;;;4162861;28;20021;-61
2023/07/25 09:00:07;;;;;;;9.10;6.57;;;27.40;99.90;;;;;;4163239;28;20036;-61
2023/07/25 09:02:10;;;;;;;10.52;6.70;;;27.10;99.90;;;;;;4162310;28;20025;-63
2023/07/25 09:04:12;;;;;;;10.98;7.13;;;26.90;99.90;;;;;;4163303;28;20116;-61
2023/07/25 09:06:13;;;;;;;9.80;7.65;;;26.80;99.90;;;;;;4162503;28;20548;-61
2023/07/25 09:08:14;;;;;;;11.25;7.43;;;27.00;99.90;;;;;;4163627;28;20604;-61
2023/07/25 09:10:16;;;;;;;8.90;6.65;;;27.20;99.90;;;;;;4161749;28;20033;-59
2023/07/25 09:12:17;;;;;;;9.73;7.20;;;27.40;99.90;;;;;;4162641;28;20037;-60
2023/07/25 09:14:19;;;;;;;8.90;6.65;;;27.10;99.90;;;;;;4162504;28;20026;-60
2023/07/25 09:16:20;;;;;;;11.23;7.25;;;27.20;99.90;;;;;;4163538;28;20029;-60
2023/07/25 09:18:23;;;;;;;11.02;7.47;;;27.20;99.90;;;;;;4161928;28;20542;-62
2023/07/25 09:20:24;;;;;;;10.63;7.65;;;27.30;99.90;;;;;;4163515;28;20087;-62
2023/07/25 09:22:30;;;;;;;10.63;7.57;;;27.10;99.90;;;;;;4144330;28;20514;-61
2023/07/25 09:24:36;;;;;;;13.07;7.88;;;27.10;99.90;;;;;;4161079;28;20049;-61
2023/07/25 09:26:39;;;;;;;12.02;8.07;;;27.50;99.90;;;;;;4162983;28;20075;-60
2023/07/25 09:28:55;;;;;;;15.35;8.07;;;27.40;99.90;;;;;;4143907;28;20112;-62
2023/07/25 09:30:56;;;;;;;11.32;8.15;;;27.10;99.90;;;;;;4159925;28;20532;-61
2023/07/25 09:32:57;;;;;;;9.45;6.80;;;27.10;99.90;;;;;;4161629;28;20034;-62
2023/07/25 09:35:05;;;;;;;19.90;7.70;;;27.20;99.90;;;;;;4162636;28;20096;-61
2023/07/25 09:37:07;;;;;;;11.35;7.55;;;27.40;99.90;;;;;;4158577;28;20010;-61
2023/07/25 09:39:09;;;;;;;12.95;7.85;;;27.40;99.90;;;;;;4162550;28;20363;-61
2023/07/25 09:41:10;;;;;;;13.85;7.90;;;27.70;99.90;;;;;;4161593;28;20112;-61
2023/07/25 09:43:25;;;;;;;9.85;6.72;;;27.30;99.90;;;;;;4162339;28;20037;-61
2023/07/25 09:45:26;;;;;;;8.88;6.93;;;27.30;99.90;;;;;;4161844;28;20037;-62
2023/07/25 09:47:28;;;;;;;9.57;7.20;;;27.10;99.90;;;;;;4162249;28;20049;-61
2023/07/25 09:49:29;;;;;;;12.05;7.15;;;27.30;99.90;;;;;;4161410;28;20026;-61
2023/07/25 09:51:31;;;;;;;12.85;8.30;;;27.20;99.90;;;;;;4162008;28;20038;-60
2023/07/25 09:53:32;;;;;;;8.55;6.53;;;27.20;99.90;;;;;;4161443;28;20075;-61
2023/07/25 09:55:33;;;;;;;12.50;7.85;;;27.30;99.90;;;;;;4162811;28;20030;-62
2023/07/25 09:57:35;;;;;;;10.32;7.47;;;27.40;99.90;;;;;;4162009;28;20029;-60
2023/07/25 09:59:36;;;;;;;12.35;7.28;;;27.40;99.90;;;;;;4163071;28;20075;-60
2023/07/25 10:01:38;;;;;;;8.82;6.65;;;27.30;99.90;;;;;;4160516;28;20087;-60
2023/07/25 10:03:43;;;;;;;11.43;6.93;;;27.50;99.90;;;;;;4140405;28;20100;-61
2023/07/25 10:05:44;;;;;;;10.98;7.15;;;27.70;99.90;;;;;;4157280;28;20041;-60
2023/07/25 10:07:47;;;;;;;8.27;6.07;;;27.80;99.90;;;;;;4162543;28;20100;-61
2023/07/25 10:09:48;;;;;;;9.25;7.15;;;27.70;99.90;;;;;;4161844;28;20493;-60
2023/07/25 10:11:50;;;;;;;10.38;6.05;;;27.80;99.90;;;;;;4162404;28;20056;-60
2023/07/25 10:13:52;;;;;;;9.82;6.18;;;28.00;99.90;;;;;;4162169;28;20017;-60
2023/07/25 10:15:55;;;;;;;8.93;5.95;;;28.10;99.90;;;;;;4161735;28;20535;-61
2023/07/25 10:18:04;;;;;;;10.77;6.38;;;28.20;99.90;;;;;;4162151;28;20080;-60
2023/07/25 10:20:06;;;;;;;7.27;5.83;;;28.20;99.90;;;;;;4161918;28;20025;-60
2023/07/25 10:22:08;;;;;;;7.63;5.40;;;28.30;99.90;;;;;;4161763;28;20271;-61